createdAt,value
2017-09-28T00:01:42.906Z,96280.35
2017-09-28T00:04:11.959Z,96276.38
2017-09-28T00:06:40.991Z,96275.13
2017-09-28T00:09:10.039Z,96272.52
2017-09-28T00:11:39.106Z,96272.86
2017-09-28T00:14:08.146Z,96271.52
2017-09-28T00:16:38.150Z,96268.98
2017-09-28T00:19:07.227Z,96277.10
2017-09-28T00:21:36.296Z,96277.86
2017-09-28T00:24:05.350Z,96278.47
2017-09-28T00:26:34.440Z,96275.51
2017-09-28T00:29:04.472Z,96278.80
2017-09-28T00:31:34.416Z,96275.62
2017-09-28T00:34:04.417Z,96280.23
2017-09-28T00:36:34.452Z,96278.89
2017-09-28T00:39:03.491Z,96275.05
2017-09-28T00:41:33.551Z,96275.91
2017-09-28T00:44:02.602Z,96276.69
2017-09-28T00:46:31.647Z,96278.36
2017-09-28T00:49:00.720Z,96279.00
2017-09-28T00:51:29.810Z,96278.78
2017-09-28T00:53:59.462Z,96275.06
2017-09-28T00:56:28.518Z,96270.95
2017-09-28T00:58:57.618Z,96271.16
2017-09-28T01:01:26.672Z,96273.65
2017-09-28T01:03:55.708Z,96275.81
2017-09-28T01:06:24.809Z,96266.41
2017-09-28T01:08:54.522Z,96272.08
2017-09-28T01:11:23.590Z,96271.88
2017-09-28T01:13:52.714Z,96271.55
2017-09-28T01:16:21.860Z,96276.63
2017-09-28T01:18:50.916Z,96278.52
2017-09-28T01:21:19.964Z,96279.20
2017-09-28T01:23:49.030Z,96275.39
2017-09-28T01:26:18.976Z,96278.02
2017-09-28T01:28:48.051Z,96277.20
2017-09-28T01:31:17.108Z,96277.58
2017-09-28T01:33:47.092Z,96276.98
2017-09-28T01:36:16.190Z,96276.18
2017-09-28T01:38:45.235Z,96272.08
2017-09-28T01:41:14.299Z,96271.05
2017-09-28T01:43:43.352Z,96273.97
2017-09-28T01:46:12.387Z,96265.77
2017-09-28T01:48:41.451Z,96266.73
2017-09-28T01:51:10.494Z,96259.94
2017-09-28T01:53:39.543Z,96258.80
2017-09-28T01:56:08.647Z,96261.65
2017-09-28T01:58:42.068Z,96262.30
2017-09-28T02:01:11.112Z,96258.70
2017-09-28T02:03:40.180Z,96255.34
2017-09-28T02:06:09.234Z,96252.42
2017-09-28T02:08:38.343Z,96252.34
2017-09-28T02:11:07.436Z,96249.12
2017-09-28T02:13:36.487Z,96256.97
2017-09-28T02:16:05.547Z,96257.32
2017-09-28T02:18:34.610Z,96259.33
2017-09-28T02:21:03.653Z,96267.19
2017-09-28T02:23:32.697Z,96262.31
2017-09-28T02:26:01.770Z,96263.92
2017-09-28T02:28:31.778Z,96265.13
2017-09-28T02:31:00.870Z,96261.44
2017-09-28T02:33:29.914Z,96264.36
2017-09-28T02:35:58.945Z,96260.05
2017-09-28T02:38:28.099Z,96262.91
2017-09-28T02:40:57.135Z,96260.64
2017-09-28T02:43:26.192Z,96265.77
2017-09-28T02:45:55.232Z,96266.30
2017-09-28T02:48:24.278Z,96271.42
2017-09-28T02:50:53.311Z,96273.95
2017-09-28T02:53:22.380Z,96266.30
2017-09-28T02:55:51.413Z,96266.13
2017-09-28T02:58:20.450Z,96269.15
2017-09-28T03:00:49.539Z,96279.78
2017-09-28T03:03:19.523Z,96290.91
2017-09-28T03:05:48.554Z,96298.36
2017-09-28T03:08:17.606Z,96304.67
2017-09-28T03:10:46.755Z,96304.06
2017-09-28T03:13:15.791Z,96300.89
2017-09-28T03:15:44.836Z,96295.05
2017-09-28T03:18:13.930Z,96295.36
2017-09-28T03:20:43.025Z,96294.36
2017-09-28T03:23:12.055Z,96289.97
2017-09-28T03:25:41.110Z,96288.52
2017-09-28T03:28:10.142Z,96283.42
2017-09-28T03:30:39.282Z,96287.78
2017-09-28T03:33:08.399Z,96284.47
2017-09-28T03:35:37.433Z,96285.29
2017-09-28T03:38:06.489Z,96292.16
2017-09-28T03:40:35.535Z,96294.82
2017-09-28T03:43:04.588Z,96297.63
2017-09-28T03:45:33.635Z,96299.14
2017-09-28T03:48:02.677Z,96296.56
2017-09-28T03:50:31.714Z,96297.95
2017-09-28T03:53:00.885Z,96296.81
2017-09-28T03:55:29.902Z,96296.66
2017-09-28T03:57:58.933Z,96294.22
2017-09-28T04:00:28.006Z,96303.25
2017-09-28T04:02:57.097Z,96308.21
2017-09-28T04:05:26.129Z,96313.96
2017-09-28T04:07:55.172Z,96314.16
2017-09-28T04:10:24.279Z,96316.64
2017-09-28T04:12:53.338Z,96317.59
2017-09-28T04:15:22.403Z,96313.22
2017-09-28T04:17:51.483Z,96312.03
2017-09-28T04:20:20.530Z,96311.86
2017-09-28T04:22:49.570Z,96310.09
2017-09-28T04:25:18.622Z,96312.95
2017-09-28T04:27:47.663Z,96309.64
2017-09-28T04:30:16.726Z,96310.33
2017-09-28T04:32:46.693Z,96308.70
2017-09-28T04:35:15.724Z,96309.83
2017-09-28T04:37:44.787Z,96310.95
2017-09-28T04:40:16.115Z,96312.48
2017-09-28T04:42:46.093Z,96325.55
2017-09-28T04:45:15.126Z,96316.49
2017-09-28T04:47:44.227Z,96310.28
2017-09-28T04:50:13.294Z,96313.20
2017-09-28T04:52:42.376Z,96317.52
2017-09-28T04:55:11.538Z,96318.24
2017-09-28T04:57:40.598Z,96316.70
2017-09-28T05:00:09.655Z,96319.34
2017-09-28T05:02:38.666Z,96327.17
2017-09-28T05:05:07.790Z,96332.89
2017-09-28T05:07:36.831Z,96333.70
2017-09-28T05:10:06.075Z,96333.67
2017-09-28T05:12:35.122Z,96339.38
2017-09-28T05:15:04.244Z,96339.91
2017-09-28T05:17:33.425Z,96341.31
2017-09-28T05:20:03.581Z,96337.09
2017-09-28T05:22:32.951Z,96344.34
2017-09-28T05:25:02.211Z,96346.16
2017-09-28T05:27:31.250Z,96350.91
2017-09-28T05:30:00.286Z,96352.69
2017-09-28T05:32:29.483Z,96357.13
2017-09-28T05:34:58.535Z,96366.12
2017-09-28T05:37:27.644Z,96368.97
2017-09-28T05:39:57.557Z,96372.49
2017-09-28T05:42:26.640Z,96377.15
2017-09-28T05:44:55.762Z,96376.05
2017-09-28T05:47:25.817Z,96374.53
2017-09-28T05:49:54.871Z,96375.20
2017-09-28T05:52:23.912Z,96375.14
2017-09-28T05:54:53.008Z,96375.40
2017-09-28T05:57:22.033Z,96377.91
2017-09-28T05:59:51.093Z,96375.53
2017-09-28T06:02:20.137Z,96387.06
2017-09-28T06:04:49.410Z,96386.55
2017-09-28T06:07:18.458Z,96379.44
2017-09-28T06:09:47.555Z,96380.91
2017-09-28T06:12:16.566Z,96382.02
2017-09-28T06:14:45.614Z,96377.64
2017-09-28T06:17:14.688Z,96378.39
2017-09-28T06:19:46.279Z,96377.31
2017-09-28T06:22:19.655Z,96378.24
2017-09-28T06:24:48.987Z,96382.67
2017-09-28T06:27:18.407Z,96383.25
2017-09-28T06:29:47.477Z,96387.62
2017-09-28T06:32:16.541Z,96393.48
2017-09-28T06:34:45.622Z,96389.30
2017-09-28T06:37:14.670Z,96394.30
2017-09-28T06:39:43.754Z,96391.42
2017-09-28T06:42:12.816Z,96399.25
2017-09-28T06:44:41.908Z,96396.16
2017-09-28T06:47:10.966Z,96396.64
2017-09-28T06:49:40.046Z,96400.98
2017-09-28T06:52:09.065Z,96403.03
2017-09-28T06:54:38.289Z,96404.65
2017-09-28T06:57:07.334Z,96404.41
2017-09-28T06:59:40.072Z,96405.04
2017-09-28T07:02:22.762Z,96403.54
2017-09-28T07:04:53.301Z,96407.92
2017-09-28T07:07:23.706Z,96409.59
2017-09-28T07:09:53.051Z,96414.74
2017-09-28T07:12:22.114Z,96414.25
2017-09-28T07:14:52.813Z,96414.66
2017-09-28T07:17:22.810Z,96414.16
2017-09-28T07:19:53.413Z,96415.72
2017-09-28T07:22:23.181Z,96417.73
2017-09-28T07:24:52.234Z,96409.31
2017-09-28T07:27:22.126Z,96411.10
2017-09-28T07:29:51.839Z,96409.06
2017-09-28T07:32:20.931Z,96412.61
2017-09-28T07:34:52.698Z,96417.44
2017-09-28T07:37:22.549Z,96416.39
2017-09-28T07:39:51.613Z,96412.93
2017-09-28T07:42:21.521Z,96418.08
2017-09-28T07:44:50.569Z,96416.43
2017-09-28T07:47:20.811Z,96412.42
2017-09-28T07:49:51.022Z,96404.33
2017-09-28T07:52:20.102Z,96406.92
2017-09-28T07:54:50.119Z,96410.74
2017-09-28T07:57:20.447Z,96409.13
2017-09-28T07:59:49.482Z,96411.85
2017-09-28T08:02:19.571Z,96412.67
2017-09-28T08:04:48.727Z,96411.30
2017-09-28T08:07:17.776Z,96411.07
2017-09-28T08:09:46.830Z,96410.08
2017-09-28T08:12:15.879Z,96410.27
2017-09-28T08:14:44.930Z,96410.17
2017-09-28T08:17:13.967Z,96411.73
2017-09-28T08:19:43.033Z,96410.46
2017-09-28T08:22:12.151Z,96407.23
2017-09-28T08:24:41.239Z,96401.86
2017-09-28T08:27:10.290Z,96403.09
2017-09-28T08:29:39.338Z,96408.27
2017-09-28T08:32:08.389Z,96414.28
2017-09-28T08:34:37.443Z,96416.24
2017-09-28T08:37:06.478Z,96417.47
2017-09-28T08:39:35.529Z,96421.81
2017-09-28T08:42:04.595Z,96420.15
2017-09-28T08:44:33.660Z,96418.36
2017-09-28T08:47:02.697Z,96414.69
2017-09-28T08:49:33.757Z,96419.13
2017-09-28T08:52:02.755Z,96413.77
2017-09-28T08:54:31.811Z,96417.71
2017-09-28T08:57:00.880Z,96410.41
2017-09-28T08:59:29.906Z,96414.94
2017-09-28T09:01:58.967Z,96416.30
2017-09-28T09:04:29.349Z,96412.63
2017-09-28T09:06:58.727Z,96416.14
2017-09-28T09:09:27.854Z,96416.09
2017-09-28T09:11:57.318Z,96415.09
2017-09-28T09:14:26.458Z,96415.23
2017-09-28T09:16:55.506Z,96417.21
2017-09-28T09:19:24.574Z,96414.05
2017-09-28T09:21:53.623Z,96410.30
2017-09-28T09:24:22.660Z,96410.57
2017-09-28T09:26:52.729Z,96408.73
2017-09-28T09:29:21.799Z,96408.89
2017-09-28T09:31:51.498Z,96404.28
2017-09-28T09:34:20.534Z,96402.83
2017-09-28T09:36:50.634Z,96400.36
2017-09-28T09:39:20.606Z,96397.20
2017-09-28T09:41:49.651Z,96394.50
2017-09-28T09:44:19.587Z,96394.03
2017-09-28T09:46:48.627Z,96387.09
2017-09-28T09:49:17.670Z,96387.37
2017-09-28T09:51:46.739Z,96381.18
2017-09-28T09:54:15.803Z,96382.80
2017-09-28T09:56:45.673Z,96379.52
2017-09-28T09:59:14.723Z,96384.10
2017-09-28T10:01:44.477Z,96383.62
2017-09-28T10:04:14.084Z,96384.65
2017-09-28T10:06:49.294Z,96386.56
2017-09-28T10:09:24.375Z,96388.92
2017-09-28T10:11:58.594Z,96388.72
2017-09-28T10:14:30.283Z,96388.50
2017-09-28T10:16:59.317Z,96389.72
2017-09-28T10:19:30.762Z,96387.27
2017-09-28T10:22:00.577Z,96391.11
2017-09-28T10:24:29.800Z,96391.59
2017-09-28T10:27:01.872Z,96394.04
2017-09-28T10:29:31.977Z,96390.80
2017-09-28T10:32:01.002Z,96393.61
2017-09-28T10:34:33.135Z,96394.66
2017-09-28T10:37:03.284Z,96397.34
2017-09-28T10:39:32.357Z,96393.84
2017-09-28T10:42:04.792Z,96391.28
2017-09-28T10:44:34.807Z,96397.80
2017-09-28T10:47:03.847Z,96393.45
2017-09-28T10:49:35.151Z,96397.70
2017-09-28T10:52:05.104Z,96398.10
2017-09-28T10:54:34.171Z,96398.67
2017-09-28T10:57:04.589Z,96397.06
2017-09-28T10:59:34.511Z,96395.31
2017-09-28T11:02:03.539Z,96395.36
2017-09-28T11:04:35.330Z,96395.00
2017-09-28T11:07:05.205Z,96389.55
2017-09-28T11:09:34.289Z,96391.80
2017-09-28T11:12:04.995Z,96388.45
2017-09-28T11:14:34.837Z,96382.78
2017-09-28T11:17:03.970Z,96385.98
2017-09-28T11:19:34.561Z,96381.56
2017-09-28T11:22:06.143Z,96382.00
2017-09-28T11:24:35.941Z,96382.23
2017-09-28T11:27:08.413Z,96380.95
2017-09-28T11:29:37.894Z,96378.58
2017-09-28T11:32:06.982Z,96371.79
2017-09-28T11:34:36.907Z,96375.33
2017-09-28T11:37:05.956Z,96377.20
2017-09-28T11:39:35.007Z,96376.00
2017-09-28T11:42:04.428Z,96376.91
2017-09-28T11:44:33.503Z,96369.27
2017-09-28T11:47:04.644Z,96364.05
2017-09-28T11:49:34.447Z,96365.57
2017-09-28T11:52:03.477Z,96365.32
2017-09-28T11:54:34.259Z,96361.81
2017-09-28T11:57:03.564Z,96358.55
2017-09-28T11:59:32.667Z,96357.35
2017-09-28T12:02:04.743Z,96356.36
2017-09-28T12:04:35.332Z,96350.06
2017-09-28T12:07:04.419Z,96348.11
2017-09-28T12:09:35.858Z,96348.02
2017-09-28T12:12:05.636Z,96351.67
2017-09-28T12:14:34.667Z,96352.84
2017-09-28T12:17:05.546Z,96350.30
2017-09-28T12:19:35.381Z,96349.11
2017-09-28T12:22:04.412Z,96351.29
2017-09-28T12:24:37.769Z,96348.80
2017-09-28T12:27:06.820Z,96345.58
2017-09-28T12:29:36.964Z,96343.30
2017-09-28T12:32:07.849Z,96341.08
2017-09-28T12:34:36.868Z,96342.30
2017-09-28T12:37:05.911Z,96344.05
2017-09-28T12:39:34.990Z,96339.18
2017-09-28T12:42:04.032Z,96340.59
2017-09-28T12:44:33.075Z,96337.96
2017-09-28T12:47:02.767Z,96338.39
2017-09-28T12:49:31.823Z,96334.60
2017-09-28T12:52:00.858Z,96335.95
2017-09-28T12:54:29.952Z,96331.46
2017-09-28T12:56:59.018Z,96332.52
2017-09-28T12:59:28.079Z,96327.20
2017-09-28T13:01:57.189Z,96329.45
2017-09-28T13:04:26.207Z,96329.96
2017-09-28T13:06:55.252Z,96332.05
2017-09-28T13:09:24.326Z,96330.19
2017-09-28T13:11:53.347Z,96330.66
2017-09-28T13:14:22.415Z,96331.47
2017-09-28T13:16:51.487Z,96331.88
2017-09-28T13:19:20.534Z,96334.42
2017-09-28T13:21:49.640Z,96335.05
2017-09-28T13:24:18.737Z,96330.87
2017-09-28T13:26:47.995Z,96330.20
2017-09-28T13:29:17.059Z,96328.00
2017-09-28T13:31:46.119Z,96330.66
2017-09-28T13:34:15.319Z,96327.56
2017-09-28T13:36:44.392Z,96330.05
2017-09-28T13:39:13.442Z,96337.89
2017-09-28T13:41:42.532Z,96334.52
2017-09-28T13:44:11.571Z,96335.67
2017-09-28T13:46:40.647Z,96335.91
2017-09-28T13:49:09.709Z,96336.66
2017-09-28T13:51:38.727Z,96336.52
2017-09-28T13:54:07.812Z,96334.45
2017-09-28T13:56:36.858Z,96337.65
2017-09-28T13:59:05.979Z,96336.39
2017-09-28T14:01:35.102Z,96334.08
2017-09-28T14:04:04.138Z,96336.82
2017-09-28T14:06:33.228Z,96340.12
2017-09-28T14:09:02.301Z,96340.19
2017-09-28T14:11:31.374Z,96338.69
2017-09-28T14:14:00.570Z,96333.95
2017-09-28T14:16:29.678Z,96334.91
2017-09-28T14:18:58.760Z,96332.81
2017-09-28T14:21:27.900Z,96327.64
2017-09-28T14:23:56.968Z,96326.88
2017-09-28T14:26:26.001Z,96330.02
2017-09-28T14:28:55.079Z,96323.48
2017-09-28T14:31:24.127Z,96327.28
2017-09-28T14:33:53.221Z,96325.34
2017-09-28T14:36:22.320Z,96325.20
2017-09-28T14:38:51.512Z,96323.85
2017-09-28T14:41:20.555Z,96323.77
2017-09-28T14:43:49.599Z,96324.23
2017-09-28T14:46:18.749Z,96323.50
2017-09-28T14:48:47.798Z,96324.89
2017-09-28T14:51:16.843Z,96321.08
2017-09-28T14:53:46.893Z,96320.53
2017-09-28T14:56:15.954Z,96317.02
2017-09-28T14:58:45.092Z,96316.09
2017-09-28T15:01:14.207Z,96308.84
2017-09-28T15:03:46.130Z,96309.11
2017-09-28T15:06:16.135Z,96311.79
2017-09-28T15:08:45.216Z,96310.94
2017-09-28T15:11:15.299Z,96313.86
2017-09-28T15:13:44.345Z,96315.72
2017-09-28T15:16:13.416Z,96317.11
2017-09-28T15:18:42.458Z,96314.91
2017-09-28T15:21:11.498Z,96317.38
2017-09-28T15:23:40.558Z,96317.75
2017-09-28T15:26:09.607Z,96313.31
2017-09-28T15:28:38.650Z,96314.05
2017-09-28T15:31:07.701Z,96314.13
2017-09-28T15:33:36.741Z,96310.70
2017-09-28T15:36:05.787Z,96311.88
2017-09-28T15:38:34.873Z,96310.47
2017-09-28T15:41:04.932Z,96312.16
2017-09-28T15:43:34.055Z,96316.88
2017-09-28T15:46:03.861Z,96319.59
2017-09-28T15:48:33.586Z,96320.92
2017-09-28T15:51:02.855Z,96322.42
2017-09-28T15:53:35.233Z,96321.93
2017-09-28T15:56:04.429Z,96319.32
2017-09-28T15:58:33.622Z,96317.80
2017-09-28T16:01:03.031Z,96323.01
2017-09-28T16:03:32.882Z,96320.32
2017-09-28T16:06:02.286Z,96325.69
2017-09-28T16:08:31.387Z,96315.88
2017-09-28T16:11:00.437Z,96320.05
2017-09-28T16:13:30.505Z,96317.66
2017-09-28T16:16:00.067Z,96320.99
2017-09-28T16:18:29.123Z,96323.33
2017-09-28T16:20:58.177Z,96324.66
2017-09-28T16:23:27.264Z,96320.32
2017-09-28T16:25:56.317Z,96324.77
2017-09-28T16:28:25.415Z,96328.45
2017-09-28T16:30:54.452Z,96329.61
2017-09-28T16:33:23.509Z,96335.76
2017-09-28T16:35:52.604Z,96337.69
2017-09-28T16:38:21.652Z,96339.14
2017-09-28T16:40:50.697Z,96352.48
2017-09-28T16:43:19.738Z,96353.70
2017-09-28T16:45:48.787Z,96353.31
2017-09-28T16:48:18.068Z,96358.13
2017-09-28T16:50:47.129Z,96357.49
2017-09-28T16:53:16.170Z,96356.67
2017-09-28T16:55:45.241Z,96352.39
2017-09-28T16:58:14.274Z,96356.41
2017-09-28T17:00:43.306Z,96357.99
2017-09-28T17:03:12.398Z,96359.64
2017-09-28T17:05:41.799Z,96354.58
2017-09-28T17:08:11.540Z,96358.42
2017-09-28T17:10:40.648Z,96352.50
2017-09-28T17:13:09.864Z,96359.92
2017-09-28T17:15:39.166Z,96360.81
2017-09-28T17:18:08.243Z,96359.56
2017-09-28T17:20:37.822Z,96358.37
2017-09-28T17:23:06.893Z,96358.69
2017-09-28T17:25:35.986Z,96356.03
2017-09-28T17:28:06.211Z,96362.17
2017-09-28T17:30:35.313Z,96361.03
2017-09-28T17:33:04.393Z,96370.50
2017-09-28T17:35:33.482Z,96366.83
2017-09-28T17:38:02.635Z,96367.00
2017-09-28T17:40:31.819Z,96369.61
2017-09-28T17:43:00.993Z,96367.30
2017-09-28T17:45:30.115Z,96370.03
2017-09-28T17:48:00.164Z,96375.32
2017-09-28T17:50:29.287Z,96370.96
2017-09-28T17:52:58.407Z,96372.23
2017-09-28T17:55:27.465Z,96372.37
2017-09-28T17:57:56.634Z,96373.31
2017-09-28T18:00:27.783Z,96372.96
2017-09-28T18:02:56.883Z,96379.40
2017-09-28T18:05:26.401Z,96379.11
2017-09-28T18:07:55.445Z,96385.27
2017-09-28T18:10:25.543Z,96389.50
2017-09-28T18:12:55.570Z,96386.72
2017-09-28T18:15:24.607Z,96387.52
2017-09-28T18:17:55.794Z,96385.97
2017-09-28T18:20:24.885Z,96382.42
2017-09-28T18:22:53.978Z,96388.43
2017-09-28T18:25:24.182Z,96393.40
2017-09-28T18:27:53.304Z,96390.95
2017-09-28T18:30:23.349Z,96395.63
2017-09-28T18:32:52.407Z,96394.00
2017-09-28T18:35:22.454Z,96394.95
2017-09-28T18:37:51.764Z,96393.98
2017-09-28T18:40:20.873Z,96392.35
2017-09-28T18:42:50.212Z,96390.39
2017-09-28T18:45:19.460Z,96389.47
2017-09-28T18:47:48.543Z,96388.66
2017-09-28T18:50:17.974Z,96393.14
2017-09-28T18:52:47.074Z,96392.12
2017-09-28T18:55:16.152Z,96393.59
2017-09-28T18:57:45.285Z,96392.14
2017-09-28T19:00:15.219Z,96390.06
2017-09-28T19:02:44.341Z,96393.61
2017-09-28T19:05:13.471Z,96393.47
2017-09-28T19:07:42.504Z,96389.03
2017-09-28T19:10:11.741Z,96386.73
2017-09-28T19:12:40.790Z,96389.44
2017-09-28T19:15:09.847Z,96390.43
2017-09-28T19:17:39.196Z,96394.25
2017-09-28T19:20:08.291Z,96393.55
2017-09-28T19:22:37.323Z,96389.55
2017-09-28T19:25:06.832Z,96390.45
2017-09-28T19:27:35.873Z,96391.77
2017-09-28T19:30:05.318Z,96392.01
2017-09-28T19:32:34.459Z,96392.94
2017-09-28T19:35:03.498Z,96389.25
2017-09-28T19:37:32.577Z,96388.84
2017-09-28T19:40:01.647Z,96388.20
2017-09-28T19:42:30.707Z,96389.38
2017-09-28T19:44:59.761Z,96391.48
2017-09-28T19:47:28.805Z,96384.87
2017-09-28T19:49:57.976Z,96387.34
2017-09-28T19:52:27.100Z,96390.07
2017-09-28T19:54:56.173Z,96393.48
2017-09-28T19:57:26.588Z,96393.09
2017-09-28T19:59:55.656Z,96393.31
2017-09-28T20:02:24.808Z,96392.95
2017-09-28T20:04:53.870Z,96390.82
2017-09-28T20:07:22.923Z,96388.59
2017-09-28T20:09:52.983Z,96385.50
2017-09-28T20:12:22.902Z,96388.55
2017-09-28T20:14:53.270Z,96387.95
2017-09-28T20:17:22.394Z,96384.02
2017-09-28T20:19:51.545Z,96381.81
2017-09-28T20:22:20.752Z,96385.48
2017-09-28T20:24:49.831Z,96388.63
2017-09-28T20:27:20.075Z,96387.13
2017-09-28T20:29:49.154Z,96391.34
2017-09-28T20:32:18.234Z,96385.84
2017-09-28T20:34:47.342Z,96391.13
2017-09-28T20:37:16.416Z,96390.50
2017-09-28T20:39:45.496Z,96392.20
2017-09-28T20:42:14.584Z,96395.07
2017-09-28T20:44:43.640Z,96393.36
2017-09-28T20:47:12.698Z,96395.75
2017-09-28T20:49:41.755Z,96395.30
2017-09-28T20:52:10.816Z,96393.25
2017-09-28T20:54:39.884Z,96391.05
2017-09-28T20:57:08.956Z,96389.88
2017-09-28T20:59:38.009Z,96387.58
2017-09-28T21:02:07.054Z,96385.30
2017-09-28T21:04:38.218Z,96386.23
2017-09-28T21:07:11.757Z,96390.67
2017-09-28T21:09:40.815Z,96380.19
2017-09-28T21:12:10.063Z,96379.20
2017-09-28T21:14:39.105Z,96372.33
2017-09-28T21:17:08.180Z,96370.99
2017-09-28T21:19:38.755Z,96367.62
2017-09-28T21:22:07.803Z,96363.70
2017-09-28T21:24:37.121Z,96367.13
2017-09-28T21:27:08.458Z,96361.77
2017-09-28T21:29:42.542Z,96359.36
2017-09-28T21:32:15.129Z,96362.45
2017-09-28T21:34:47.082Z,96362.08
2017-09-28T21:37:16.983Z,96358.41
2017-09-28T21:39:46.210Z,96357.27
2017-09-28T21:42:15.231Z,96353.24
2017-09-28T21:44:44.358Z,96352.63
2017-09-28T21:47:13.441Z,96353.68
2017-09-28T21:49:42.535Z,96353.99
2017-09-28T21:52:11.687Z,96354.88
2017-09-28T21:54:41.146Z,96351.55
2017-09-28T21:57:14.062Z,96352.48
2017-09-28T21:59:43.478Z,96352.97
2017-09-28T22:02:12.832Z,96352.86
2017-09-28T22:04:42.211Z,96355.68
2017-09-28T22:07:12.307Z,96355.16
2017-09-28T22:09:41.448Z,96356.44
2017-09-28T22:12:10.557Z,96353.86
2017-09-28T22:14:41.011Z,96350.81
2017-09-28T22:17:11.414Z,96347.98
2017-09-28T22:19:41.381Z,96345.06
2017-09-28T22:22:11.888Z,96349.47
2017-09-28T22:24:42.368Z,96356.03
2017-09-28T22:27:11.522Z,96357.30
2017-09-28T22:29:40.608Z,96355.49
2017-09-28T22:32:11.302Z,96352.59
2017-09-28T22:34:41.437Z,96346.27
2017-09-28T22:37:10.970Z,96343.56
2017-09-28T22:39:40.615Z,96341.66
2017-09-28T22:42:10.808Z,96342.03
2017-09-28T22:44:40.016Z,96336.95
2017-09-28T22:47:10.852Z,96336.53
2017-09-28T22:49:39.942Z,96331.32
2017-09-28T22:52:10.073Z,96324.48
2017-09-28T22:54:39.959Z,96326.76
2017-09-28T22:57:10.818Z,96324.22
2017-09-28T22:59:41.958Z,96318.00
2017-09-28T23:02:12.492Z,96317.23
2017-09-28T23:04:41.791Z,96310.30
2017-09-28T23:07:10.827Z,96307.69
2017-09-28T23:09:40.519Z,96303.41
2017-09-28T23:12:09.860Z,96305.46
2017-09-28T23:14:40.158Z,96301.63
2017-09-28T23:17:10.201Z,96303.06
2017-09-28T23:19:39.475Z,96300.62
2017-09-28T23:22:08.944Z,96302.49
2017-09-28T23:24:39.302Z,96302.11
2017-09-28T23:27:08.433Z,96300.48
2017-09-28T23:29:37.795Z,96299.30
2017-09-28T23:32:06.860Z,96298.42
2017-09-28T23:34:36.131Z,96298.25
2017-09-28T23:37:05.171Z,96297.68
2017-09-28T23:39:35.932Z,96296.82
2017-09-28T23:42:04.965Z,96297.13
2017-09-28T23:44:34.039Z,96298.20
2017-09-28T23:47:03.999Z,96297.83
2017-09-28T23:49:33.050Z,96294.86
2017-09-28T23:52:02.107Z,96294.48
2017-09-28T23:54:31.170Z,96290.48
2017-09-28T23:57:03.867Z,96296.46
2017-09-28T23:59:32.951Z,96299.84
